sensor_id;sensor_type;location;lat;lon;timestamp;P1;durP1;ratioP1;P2;durP2;ratioP2
8881;SDS011;4477;48.736;9.176;2024-02-23T00:01:32;0.33;;;0.20;;
8881;SDS011;4477;48.736;9.176;2024-02-23T00:04:00;0.30;;;0.20;;
8881;SDS011;4477;48.736;9.176;2024-02-23T00:06:27;0.40;;;0.30;;
8881;SDS011;4477;48.736;9.176;2024-02-23T00:08:54;0.77;;;0.30;;
8881;SDS011;4477;48.736;9.176;2024-02-23T00:11:21;0.90;;;0.40;;
8881;SDS011;4477;48.736;9.176;2024-02-23T00:13:48;0.30;;;0.30;;
8881;SDS011;4477;48.736;9.176;2024-02-23T00:16:15;0.30;;;0.30;;
8881;SDS011;4477;48.736;9.176;2024-02-23T00:18:47;0.40;;;0.40;;
8881;SDS011;4477;48.736;9.176;2024-02-23T00:21:14;0.20;;;0.20;;
8881;SDS011;4477;48.736;9.176;2024-02-23T00:23:41;0.40;;;0.30;;
8881;SDS011;4477;48.736;9.176;2024-02-23T00:26:08;0.30;;;0.30;;
8881;SDS011;4477;48.736;9.176;2024-02-23T00:28:34;0.80;;;0.43;;
8881;SDS011;4477;48.736;9.176;2024-02-23T00:31:02;0.53;;;0.30;;
8881;SDS011;4477;48.736;9.176;2024-02-23T00:33:29;0.93;;;0.40;;
8881;SDS011;4477;48.736;9.176;2024-02-23T00:35:57;1.23;;;0.47;;
8881;SDS011;4477;48.736;9.176;2024-02-23T00:38:24;0.40;;;0.30;;
8881;SDS011;4477;48.736;9.176;2024-02-23T00:40:51;0.50;;;0.30;;
8881;SDS011;4477;48.736;9.176;2024-02-23T00:43:19;0.50;;;0.30;;
8881;SDS011;4477;48.736;9.176;2024-02-23T00:45:46;1.70;;;0.50;;
8881;SDS011;4477;48.736;9.176;2024-02-23T00:48:13;0.63;;;0.33;;
8881;SDS011;4477;48.736;9.176;2024-02-23T00:50:40;1.30;;;0.50;;
8881;SDS011;4477;48.736;9.176;2024-02-23T00:53:08;0.30;;;0.30;;
8881;SDS011;4477;48.736;9.176;2024-02-23T00:55:35;0.70;;;0.40;;
8881;SDS011;4477;48.736;9.176;2024-02-23T00:58:02;1.47;;;0.50;;
8881;SDS011;4477;48.736;9.176;2024-02-23T01:00:30;2.07;;;0.53;;
8881;SDS011;4477;48.736;9.176;2024-02-23T01:02:57;2.20;;;0.60;;
8881;SDS011;4477;48.736;9.176;2024-02-23T01:05:25;1.47;;;0.50;;
8881;SDS011;4477;48.736;9.176;2024-02-23T01:07:52;1.60;;;0.53;;
8881;SDS011;4477;48.736;9.176;2024-02-23T01:10:20;0.80;;;0.60;;
8881;SDS011;4477;48.736;9.176;2024-02-23T01:12:47;1.60;;;0.50;;
8881;SDS011;4477;48.736;9.176;2024-02-23T01:15:14;1.20;;;0.60;;
8881;SDS011;4477;48.736;9.176;2024-02-23T01:17:41;2.20;;;0.60;;
8881;SDS011;4477;48.736;9.176;2024-02-23T01:20:09;0.50;;;0.50;;
8881;SDS011;4477;48.736;9.176;2024-02-23T01:22:36;1.63;;;0.60;;
8881;SDS011;4477;48.736;9.176;2024-02-23T01:25:03;2.00;;;0.50;;
8881;SDS011;4477;48.736;9.176;2024-02-23T01:27:33;0.70;;;0.60;;
8881;SDS011;4477;48.736;9.176;2024-02-23T01:30:00;2.77;;;0.60;;
8881;SDS011;4477;48.736;9.176;2024-02-23T01:32:27;1.00;;;0.60;;
8881;SDS011;4477;48.736;9.176;2024-02-23T01:34:55;1.40;;;0.50;;
8881;SDS011;4477;48.736;9.176;2024-02-23T01:37:22;1.53;;;0.60;;
8881;SDS011;4477;48.736;9.176;2024-02-23T01:39:49;1.20;;;0.70;;
8881;SDS011;4477;48.736;9.176;2024-02-23T01:42:16;0.73;;;0.40;;
8881;SDS011;4477;48.736;9.176;2024-02-23T01:44:45;0.93;;;0.60;;
8881;SDS011;4477;48.736;9.176;2024-02-23T01:47:12;1.63;;;0.70;;
8881;SDS011;4477;48.736;9.176;2024-02-23T01:49:39;3.63;;;0.73;;
8881;SDS011;4477;48.736;9.176;2024-02-23T01:52:06;1.40;;;0.50;;
8881;SDS011;4477;48.736;9.176;2024-02-23T01:54:33;1.57;;;0.67;;
8881;SDS011;4477;48.736;9.176;2024-02-23T01:57:00;3.10;;;0.70;;
8881;SDS011;4477;48.736;9.176;2024-02-23T01:59:27;3.03;;;0.63;;
8881;SDS011;4477;48.736;9.176;2024-02-23T02:01:56;1.80;;;0.50;;
8881;SDS011;4477;48.736;9.176;2024-02-23T02:04:23;1.13;;;0.73;;
8881;SDS011;4477;48.736;9.176;2024-02-23T02:06:50;1.67;;;0.80;;
8881;SDS011;4477;48.736;9.176;2024-02-23T02:09:17;2.50;;;0.70;;
8881;SDS011;4477;48.736;9.176;2024-02-23T02:11:45;1.03;;;0.70;;
8881;SDS011;4477;48.736;9.176;2024-02-23T02:14:12;1.37;;;0.73;;
8881;SDS011;4477;48.736;9.176;2024-02-23T02:16:40;2.07;;;0.63;;
8881;SDS011;4477;48.736;9.176;2024-02-23T02:19:09;2.47;;;0.57;;
8881;SDS011;4477;48.736;9.176;2024-02-23T02:21:36;1.80;;;0.70;;
8881;SDS011;4477;48.736;9.176;2024-02-23T02:24:04;1.03;;;0.50;;
8881;SDS011;4477;48.736;9.176;2024-02-23T02:26:31;1.73;;;0.60;;
8881;SDS011;4477;48.736;9.176;2024-02-23T02:28:58;1.57;;;0.67;;
8881;SDS011;4477;48.736;9.176;2024-02-23T02:31:25;1.67;;;0.77;;
8881;SDS011;4477;48.736;9.176;2024-02-23T02:33:52;0.77;;;0.50;;
8881;SDS011;4477;48.736;9.176;2024-02-23T02:36:21;1.30;;;0.60;;
8881;SDS011;4477;48.736;9.176;2024-02-23T02:38:48;1.17;;;0.60;;
8881;SDS011;4477;48.736;9.176;2024-02-23T02:41:16;2.30;;;0.60;;
8881;SDS011;4477;48.736;9.176;2024-02-23T02:43:45;1.20;;;0.60;;
8881;SDS011;4477;48.736;9.176;2024-02-23T02:46:13;2.60;;;0.67;;
8881;SDS011;4477;48.736;9.176;2024-02-23T02:48:40;0.60;;;0.40;;
8881;SDS011;4477;48.736;9.176;2024-02-23T02:51:07;1.27;;;0.63;;
8881;SDS011;4477;48.736;9.176;2024-02-23T02:53:37;2.47;;;0.60;;
8881;SDS011;4477;48.736;9.176;2024-02-23T02:56:05;1.17;;;0.60;;
8881;SDS011;4477;48.736;9.176;2024-02-23T02:58:33;2.17;;;0.77;;
8881;SDS011;4477;48.736;9.176;2024-02-23T03:01:00;1.43;;;0.70;;
8881;SDS011;4477;48.736;9.176;2024-02-23T03:03:27;1.67;;;0.70;;
8881;SDS011;4477;48.736;9.176;2024-02-23T03:05:54;1.57;;;0.60;;
8881;SDS011;4477;48.736;9.176;2024-02-23T03:08:21;1.27;;;0.60;;
8881;SDS011;4477;48.736;9.176;2024-02-23T03:10:49;1.10;;;0.60;;
8881;SDS011;4477;48.736;9.176;2024-02-23T03:13:17;1.13;;;0.50;;
8881;SDS011;4477;48.736;9.176;2024-02-23T03:15:43;0.90;;;0.50;;
8881;SDS011;4477;48.736;9.176;2024-02-23T03:18:10;1.93;;;0.57;;
8881;SDS011;4477;48.736;9.176;2024-02-23T03:20:39;1.70;;;1.10;;
8881;SDS011;4477;48.736;9.176;2024-02-23T03:23:07;3.00;;;0.80;;
8881;SDS011;4477;48.736;9.176;2024-02-23T03:25:34;2.93;;;0.70;;
8881;SDS011;4477;48.736;9.176;2024-02-23T03:28:03;0.73;;;0.40;;
8881;SDS011;4477;48.736;9.176;2024-02-23T03:30:31;1.20;;;0.60;;
8881;SDS011;4477;48.736;9.176;2024-02-23T03:33:01;1.53;;;0.50;;
8881;SDS011;4477;48.736;9.176;2024-02-23T03:35:29;1.03;;;0.70;;
8881;SDS011;4477;48.736;9.176;2024-02-23T03:37:56;2.60;;;0.60;;
8881;SDS011;4477;48.736;9.176;2024-02-23T03:40:23;0.90;;;0.60;;
8881;SDS011;4477;48.736;9.176;2024-02-23T03:42:50;0.90;;;0.60;;
8881;SDS011;4477;48.736;9.176;2024-02-23T03:45:18;1.00;;;0.50;;
8881;SDS011;4477;48.736;9.176;2024-02-23T03:47:46;1.13;;;0.70;;
8881;SDS011;4477;48.736;9.176;2024-02-23T03:50:14;2.10;;;0.60;;
8881;SDS011;4477;48.736;9.176;2024-02-23T03:52:41;4.23;;;0.73;;
8881;SDS011;4477;48.736;9.176;2024-02-23T03:55:09;3.77;;;0.70;;
8881;SDS011;4477;48.736;9.176;2024-02-23T03:57:36;2.10;;;0.70;;
8881;SDS011;4477;48.736;9.176;2024-02-23T04:00:04;3.80;;;0.80;;
8881;SDS011;4477;48.736;9.176;2024-02-23T04:02:34;2.20;;;0.80;;
8881;SDS011;4477;48.736;9.176;2024-02-23T04:05:01;3.63;;;0.80;;
8881;SDS011;4477;48.736;9.176;2024-02-23T04:07:28;0.90;;;0.50;;
8881;SDS011;4477;48.736;9.176;2024-02-23T04:09:55;1.20;;;0.60;;
8881;SDS011;4477;48.736;9.176;2024-02-23T04:12:23;1.13;;;0.50;;
8881;SDS011;4477;48.736;9.176;2024-02-23T04:14:50;2.00;;;0.63;;
8881;SDS011;4477;48.736;9.176;2024-02-23T04:17:17;2.53;;;0.73;;
8881;SDS011;4477;48.736;9.176;2024-02-23T04:19:46;0.93;;;0.60;;
8881;SDS011;4477;48.736;9.176;2024-02-23T04:22:13;0.57;;;0.50;;
8881;SDS011;4477;48.736;9.176;2024-02-23T04:24:40;1.03;;;0.60;;
8881;SDS011;4477;48.736;9.176;2024-02-23T04:27:07;1.67;;;0.60;;
8881;SDS011;4477;48.736;9.176;2024-02-23T04:29:34;0.70;;;0.50;;
8881;SDS011;4477;48.736;9.176;2024-02-23T04:32:02;3.03;;;0.77;;
8881;SDS011;4477;48.736;9.176;2024-02-23T04:34:30;2.07;;;0.50;;
8881;SDS011;4477;48.736;9.176;2024-02-23T04:36:58;1.53;;;0.53;;
8881;SDS011;4477;48.736;9.176;2024-02-23T04:39:25;1.83;;;0.60;;
8881;SDS011;4477;48.736;9.176;2024-02-23T04:41:52;3.47;;;0.80;;
8881;SDS011;4477;48.736;9.176;2024-02-23T04:44:20;3.43;;;1.00;;
8881;SDS011;4477;48.736;9.176;2024-02-23T04:46:47;1.90;;;0.63;;
8881;SDS011;4477;48.736;9.176;2024-02-23T04:49:14;3.73;;;0.90;;
8881;SDS011;4477;48.736;9.176;2024-02-23T04:51:41;1.77;;;0.63;;
8881;SDS011;4477;48.736;9.176;2024-02-23T04:54:10;1.57;;;0.60;;
8881;SDS011;4477;48.736;9.176;2024-02-23T04:56:37;1.17;;;0.70;;
8881;SDS011;4477;48.736;9.176;2024-02-23T04:59:04;1.30;;;0.77;;
8881;SDS011;4477;48.736;9.176;2024-02-23T05:01:34;2.47;;;0.63;;
8881;SDS011;4477;48.736;9.176;2024-02-23T05:04:02;1.93;;;0.73;;
8881;SDS011;4477;48.736;9.176;2024-02-23T05:06:30;1.27;;;0.80;;
8881;SDS011;4477;48.736;9.176;2024-02-23T05:08:57;2.30;;;0.93;;
8881;SDS011;4477;48.736;9.176;2024-02-23T05:11:27;1.33;;;0.70;;
8881;SDS011;4477;48.736;9.176;2024-02-23T05:13:56;1.73;;;0.80;;
8881;SDS011;4477;48.736;9.176;2024-02-23T05:16:23;2.07;;;0.70;;
8881;SDS011;4477;48.736;9.176;2024-02-23T05:18:50;1.03;;;0.60;;
8881;SDS011;4477;48.736;9.176;2024-02-23T05:21:17;2.13;;;0.73;;
8881;SDS011;4477;48.736;9.176;2024-02-23T05:23:45;2.87;;;0.90;;
8881;SDS011;4477;48.736;9.176;2024-02-23T05:26:12;2.00;;;1.00;;
8881;SDS011;4477;48.736;9.176;2024-02-23T05:28:41;0.73;;;0.60;;
8881;SDS011;4477;48.736;9.176;2024-02-23T05:31:09;2.00;;;0.80;;
8881;SDS011;4477;48.736;9.176;2024-02-23T05:33:36;3.43;;;0.73;;
8881;SDS011;4477;48.736;9.176;2024-02-23T05:36:03;1.37;;;0.80;;
8881;SDS011;4477;48.736;9.176;2024-02-23T05:38:31;2.17;;;0.80;;
8881;SDS011;4477;48.736;9.176;2024-02-23T05:40:58;5.60;;;2.23;;
8881;SDS011;4477;48.736;9.176;2024-02-23T05:43:26;3.30;;;2.10;;
8881;SDS011;4477;48.736;9.176;2024-02-23T05:45:54;2.70;;;1.73;;
8881;SDS011;4477;48.736;9.176;2024-02-23T05:48:23;3.63;;;1.40;;
8881;SDS011;4477;48.736;9.176;2024-02-23T05:50:51;1.87;;;1.17;;
8881;SDS011;4477;48.736;9.176;2024-02-23T05:53:19;3.40;;;1.00;;
8881;SDS011;4477;48.736;9.176;2024-02-23T05:55:46;1.70;;;1.00;;
8881;SDS011;4477;48.736;9.176;2024-02-23T05:58:14;1.97;;;0.97;;
8881;SDS011;4477;48.736;9.176;2024-02-23T06:00:42;3.53;;;0.80;;
8881;SDS011;4477;48.736;9.176;2024-02-23T06:03:10;1.20;;;0.67;;
8881;SDS011;4477;48.736;9.176;2024-02-23T06:05:38;1.33;;;0.80;;
8881;SDS011;4477;48.736;9.176;2024-02-23T06:08:05;1.37;;;0.90;;
8881;SDS011;4477;48.736;9.176;2024-02-23T06:10:33;2.10;;;0.90;;
8881;SDS011;4477;48.736;9.176;2024-02-23T06:13:00;1.83;;;0.67;;
8881;SDS011;4477;48.736;9.176;2024-02-23T06:15:27;2.33;;;0.70;;
8881;SDS011;4477;48.736;9.176;2024-02-23T06:17:55;4.97;;;0.80;;
8881;SDS011;4477;48.736;9.176;2024-02-23T06:20:24;2.23;;;0.83;;
8881;SDS011;4477;48.736;9.176;2024-02-23T06:22:52;3.17;;;1.30;;
8881;SDS011;4477;48.736;9.176;2024-02-23T06:25:19;2.20;;;0.90;;
8881;SDS011;4477;48.736;9.176;2024-02-23T06:27:46;1.47;;;0.90;;
8881;SDS011;4477;48.736;9.176;2024-02-23T06:30:14;1.70;;;1.00;;
8881;SDS011;4477;48.736;9.176;2024-02-23T06:32:42;1.63;;;1.03;;
8881;SDS011;4477;48.736;9.176;2024-02-23T06:35:10;2.03;;;1.20;;
8881;SDS011;4477;48.736;9.176;2024-02-23T06:37:40;1.57;;;1.27;;
8881;SDS011;4477;48.736;9.176;2024-02-23T06:40:07;3.10;;;1.20;;
8881;SDS011;4477;48.736;9.176;2024-02-23T06:42:35;1.83;;;1.20;;
8881;SDS011;4477;48.736;9.176;2024-02-23T06:45:04;4.33;;;1.90;;
8881;SDS011;4477;48.736;9.176;2024-02-23T06:47:32;1.97;;;1.17;;
8881;SDS011;4477;48.736;9.176;2024-02-23T06:49:59;3.37;;;1.17;;
8881;SDS011;4477;48.736;9.176;2024-02-23T06:52:28;2.10;;;1.20;;
8881;SDS011;4477;48.736;9.176;2024-02-23T06:54:57;3.73;;;1.10;;
8881;SDS011;4477;48.736;9.176;2024-02-23T06:57:24;2.30;;;1.20;;
8881;SDS011;4477;48.736;9.176;2024-02-23T06:59:52;0.90;;;0.90;;
8881;SDS011;4477;48.736;9.176;2024-02-23T07:02:19;2.33;;;1.30;;
8881;SDS011;4477;48.736;9.176;2024-02-23T07:04:46;1.77;;;0.90;;
8881;SDS011;4477;48.736;9.176;2024-02-23T07:07:12;2.70;;;1.10;;
8881;SDS011;4477;48.736;9.176;2024-02-23T07:09:39;2.70;;;1.10;;
8881;SDS011;4477;48.736;9.176;2024-02-23T07:12:08;1.47;;;1.00;;
8881;SDS011;4477;48.736;9.176;2024-02-23T07:14:38;2.77;;;1.10;;
8881;SDS011;4477;48.736;9.176;2024-02-23T07:17:05;1.57;;;0.90;;
8881;SDS011;4477;48.736;9.176;2024-02-23T07:19:33;1.33;;;1.03;;
8881;SDS011;4477;48.736;9.176;2024-02-23T07:22:00;1.47;;;0.80;;
8881;SDS011;4477;48.736;9.176;2024-02-23T07:24:27;2.63;;;1.00;;
8881;SDS011;4477;48.736;9.176;2024-02-23T07:26:54;1.03;;;0.73;;
8881;SDS011;4477;48.736;9.176;2024-02-23T07:29:22;2.17;;;1.07;;
8881;SDS011;4477;48.736;9.176;2024-02-23T07:31:49;2.40;;;1.03;;
8881;SDS011;4477;48.736;9.176;2024-02-23T07:34:17;2.53;;;1.20;;
8881;SDS011;4477;48.736;9.176;2024-02-23T07:36:44;1.20;;;0.70;;
8881;SDS011;4477;48.736;9.176;2024-02-23T07:39:11;2.20;;;0.77;;
8881;SDS011;4477;48.736;9.176;2024-02-23T07:41:38;0.80;;;0.80;;
8881;SDS011;4477;48.736;9.176;2024-02-23T07:44:05;2.07;;;0.97;;
8881;SDS011;4477;48.736;9.176;2024-02-23T07:46:34;3.13;;;0.73;;
8881;SDS011;4477;48.736;9.176;2024-02-23T07:49:01;1.47;;;0.90;;
8881;SDS011;4477;48.736;9.176;2024-02-23T07:51:28;2.47;;;1.40;;
8881;SDS011;4477;48.736;9.176;2024-02-23T07:53:55;2.60;;;1.00;;
8881;SDS011;4477;48.736;9.176;2024-02-23T07:56:27;2.00;;;0.90;;
8881;SDS011;4477;48.736;9.176;2024-02-23T07:58:54;1.97;;;0.90;;
8881;SDS011;4477;48.736;9.176;2024-02-23T08:01:22;2.23;;;0.93;;
8881;SDS011;4477;48.736;9.176;2024-02-23T08:03:52;1.33;;;0.93;;
8881;SDS011;4477;48.736;9.176;2024-02-23T08:06:19;1.60;;;0.80;;
8881;SDS011;4477;48.736;9.176;2024-02-23T08:08:47;1.50;;;0.87;;
8881;SDS011;4477;48.736;9.176;2024-02-23T08:11:14;1.67;;;0.80;;
8881;SDS011;4477;48.736;9.176;2024-02-23T08:13:42;1.90;;;0.90;;
8881;SDS011;4477;48.736;9.176;2024-02-23T08:16:09;1.77;;;0.80;;
8881;SDS011;4477;48.736;9.176;2024-02-23T08:18:36;2.43;;;0.80;;
8881;SDS011;4477;48.736;9.176;2024-02-23T08:21:05;2.20;;;0.83;;
8881;SDS011;4477;48.736;9.176;2024-02-23T08:23:32;2.77;;;1.03;;
8881;SDS011;4477;48.736;9.176;2024-02-23T08:25:59;1.30;;;0.87;;
8881;SDS011;4477;48.736;9.176;2024-02-23T08:28:26;3.50;;;0.83;;
8881;SDS011;4477;48.736;9.176;2024-02-23T08:30:55;1.73;;;0.90;;
8881;SDS011;4477;48.736;9.176;2024-02-23T08:33:22;2.90;;;0.90;;
8881;SDS011;4477;48.736;9.176;2024-02-23T08:35:50;2.20;;;0.80;;
8881;SDS011;4477;48.736;9.176;2024-02-23T08:38:19;1.87;;;1.00;;
8881;SDS011;4477;48.736;9.176;2024-02-23T08:40:46;1.53;;;0.70;;
8881;SDS011;4477;48.736;9.176;2024-02-23T08:43:13;2.20;;;0.90;;
8881;SDS011;4477;48.736;9.176;2024-02-23T08:45:40;3.90;;;1.20;;
8881;SDS011;4477;48.736;9.176;2024-02-23T08:48:07;2.47;;;1.33;;
8881;SDS011;4477;48.736;9.176;2024-02-23T08:50:34;2.53;;;1.00;;
8881;SDS011;4477;48.736;9.176;2024-02-23T08:53:03;2.17;;;0.87;;
8881;SDS011;4477;48.736;9.176;2024-02-23T08:55:32;1.43;;;0.90;;
8881;SDS011;4477;48.736;9.176;2024-02-23T08:57:59;2.90;;;0.93;;
8881;SDS011;4477;48.736;9.176;2024-02-23T09:00:26;2.50;;;0.90;;
8881;SDS011;4477;48.736;9.176;2024-02-23T09:02:53;3.80;;;1.00;;
8881;SDS011;4477;48.736;9.176;2024-02-23T09:05:21;3.17;;;0.77;;
8881;SDS011;4477;48.736;9.176;2024-02-23T09:07:48;1.60;;;0.80;;
8881;SDS011;4477;48.736;9.176;2024-02-23T09:10:15;4.40;;;1.10;;
8881;SDS011;4477;48.736;9.176;2024-02-23T09:12:44;2.93;;;0.80;;
8881;SDS011;4477;48.736;9.176;2024-02-23T09:15:12;2.07;;;0.90;;
8881;SDS011;4477;48.736;9.176;2024-02-23T09:17:40;2.63;;;0.97;;
8881;SDS011;4477;48.736;9.176;2024-02-23T09:20:08;4.13;;;0.90;;
8881;SDS011;4477;48.736;9.176;2024-02-23T09:22:38;1.73;;;0.93;;
8881;SDS011;4477;48.736;9.176;2024-02-23T09:25:06;1.83;;;0.77;;
8881;SDS011;4477;48.736;9.176;2024-02-23T09:27:33;2.57;;;1.00;;
8881;SDS011;4477;48.736;9.176;2024-02-23T09:30:10;3.03;;;0.87;;
8881;SDS011;4477;48.736;9.176;2024-02-23T09:32:38;2.67;;;0.70;;
8881;SDS011;4477;48.736;9.176;2024-02-23T09:35:09;2.00;;;0.70;;
8881;SDS011;4477;48.736;9.176;2024-02-23T09:37:36;3.43;;;0.90;;
8881;SDS011;4477;48.736;9.176;2024-02-23T09:40:04;1.37;;;0.70;;
8881;SDS011;4477;48.736;9.176;2024-02-23T09:42:32;2.20;;;0.80;;
8881;SDS011;4477;48.736;9.176;2024-02-23T09:45:00;1.93;;;0.80;;
8881;SDS011;4477;48.736;9.176;2024-02-23T09:47:35;2.73;;;0.90;;
8881;SDS011;4477;48.736;9.176;2024-02-23T09:50:06;2.87;;;0.80;;
8881;SDS011;4477;48.736;9.176;2024-02-23T09:52:36;2.27;;;0.90;;
8881;SDS011;4477;48.736;9.176;2024-02-23T09:55:05;3.60;;;0.90;;
8881;SDS011;4477;48.736;9.176;2024-02-23T09:57:36;1.57;;;0.77;;
8881;SDS011;4477;48.736;9.176;2024-02-23T10:00:06;2.30;;;0.80;;
8881;SDS011;4477;48.736;9.176;2024-02-23T10:02:37;2.17;;;0.90;;
8881;SDS011;4477;48.736;9.176;2024-02-23T10:05:07;2.40;;;0.90;;
8881;SDS011;4477;48.736;9.176;2024-02-23T10:07:47;3.20;;;0.80;;
8881;SDS011;4477;48.736;9.176;2024-02-23T10:10:29;4.50;;;0.97;;
8881;SDS011;4477;48.736;9.176;2024-02-23T10:12:58;1.90;;;0.63;;
8881;SDS011;4477;48.736;9.176;2024-02-23T10:15:25;2.83;;;0.80;;
8881;SDS011;4477;48.736;9.176;2024-02-23T10:17:58;3.37;;;0.77;;
8881;SDS011;4477;48.736;9.176;2024-02-23T10:20:25;3.60;;;0.97;;
8881;SDS011;4477;48.736;9.176;2024-02-23T10:22:57;4.30;;;0.90;;
8881;SDS011;4477;48.736;9.176;2024-02-23T10:25:33;3.33;;;0.90;;
8881;SDS011;4477;48.736;9.176;2024-02-23T10:28:00;2.87;;;1.00;;
8881;SDS011;4477;48.736;9.176;2024-02-23T10:30:34;2.00;;;0.70;;
8881;SDS011;4477;48.736;9.176;2024-02-23T10:33:08;2.60;;;1.13;;
8881;SDS011;4477;48.736;9.176;2024-02-23T10:35:38;2.60;;;1.33;;
8881;SDS011;4477;48.736;9.176;2024-02-23T10:38:06;2.27;;;1.03;;
8881;SDS011;4477;48.736;9.176;2024-02-23T10:40:35;2.63;;;1.10;;
8881;SDS011;4477;48.736;9.176;2024-02-23T10:43:06;1.60;;;0.90;;
8881;SDS011;4477;48.736;9.176;2024-02-23T10:45:38;4.77;;;1.10;;
8881;SDS011;4477;48.736;9.176;2024-02-23T10:48:13;3.43;;;0.90;;
8881;SDS011;4477;48.736;9.176;2024-02-23T10:50:43;1.63;;;0.80;;
8881;SDS011;4477;48.736;9.176;2024-02-23T10:53:11;1.93;;;0.90;;
8881;SDS011;4477;48.736;9.176;2024-02-23T10:55:40;3.27;;;0.70;;
8881;SDS011;4477;48.736;9.176;2024-02-23T10:58:11;2.90;;;1.07;;
8881;SDS011;4477;48.736;9.176;2024-02-23T11:00:45;2.20;;;1.07;;
8881;SDS011;4477;48.736;9.176;2024-02-23T11:03:18;2.83;;;1.10;;
8881;SDS011;4477;48.736;9.176;2024-02-23T11:05:47;2.07;;;1.10;;
8881;SDS011;4477;48.736;9.176;2024-02-23T11:08:20;3.40;;;0.97;;
8881;SDS011;4477;48.736;9.176;2024-02-23T11:10:50;4.50;;;0.80;;
8881;SDS011;4477;48.736;9.176;2024-02-23T11:13:34;2.70;;;1.63;;
8881;SDS011;4477;48.736;9.176;2024-02-23T11:16:01;1.90;;;0.80;;
8881;SDS011;4477;48.736;9.176;2024-02-23T11:18:33;4.90;;;1.73;;
8881;SDS011;4477;48.736;9.176;2024-02-23T11:21:04;4.17;;;0.93;;
8881;SDS011;4477;48.736;9.176;2024-02-23T11:23:55;6.00;;;1.50;;
8881;SDS011;4477;48.736;9.176;2024-02-23T11:26:58;1.93;;;1.03;;
8881;SDS011;4477;48.736;9.176;2024-02-23T11:29:36;3.67;;;1.07;;
8881;SDS011;4477;48.736;9.176;2024-02-23T11:32:12;3.83;;;1.00;;
8881;SDS011;4477;48.736;9.176;2024-02-23T11:34:55;2.77;;;0.80;;
8881;SDS011;4477;48.736;9.176;2024-02-23T11:37:31;2.50;;;1.10;;
8881;SDS011;4477;48.736;9.176;2024-02-23T11:40:30;2.00;;;1.17;;
8881;SDS011;4477;48.736;9.176;2024-02-23T11:43:10;2.13;;;0.80;;
8881;SDS011;4477;48.736;9.176;2024-02-23T11:45:40;4.13;;;0.90;;
8881;SDS011;4477;48.736;9.176;2024-02-23T11:48:15;2.90;;;0.73;;
8881;SDS011;4477;48.736;9.176;2024-02-23T11:50:49;4.27;;;0.90;;
8881;SDS011;4477;48.736;9.176;2024-02-23T11:53:18;2.40;;;1.00;;
8881;SDS011;4477;48.736;9.176;2024-02-23T11:55:47;4.23;;;1.40;;
8881;SDS011;4477;48.736;9.176;2024-02-23T12:01:24;2.47;;;1.03;;
8881;SDS011;4477;48.736;9.176;2024-02-23T12:04:02;2.87;;;1.00;;
8881;SDS011;4477;48.736;9.176;2024-02-23T12:06:48;3.33;;;0.70;;
8881;SDS011;4477;48.736;9.176;2024-02-23T12:09:17;1.20;;;0.70;;
8881;SDS011;4477;48.736;9.176;2024-02-23T12:12:01;2.13;;;0.80;;
8881;SDS011;4477;48.736;9.176;2024-02-23T12:14:50;4.30;;;0.90;;
8881;SDS011;4477;48.736;9.176;2024-02-23T12:17:25;4.77;;;1.47;;
8881;SDS011;4477;48.736;9.176;2024-02-23T12:20:09;3.67;;;1.47;;
8881;SDS011;4477;48.736;9.176;2024-02-23T12:25:56;3.30;;;1.20;;
8881;SDS011;4477;48.736;9.176;2024-02-23T12:28:41;3.77;;;1.00;;
8881;SDS011;4477;48.736;9.176;2024-02-23T12:31:34;2.37;;;1.10;;
8881;SDS011;4477;48.736;9.176;2024-02-23T12:34:04;4.23;;;1.00;;
8881;SDS011;4477;48.736;9.176;2024-02-23T12:36:39;2.17;;;0.90;;
8881;SDS011;4477;48.736;9.176;2024-02-23T12:39:17;2.57;;;1.20;;
8881;SDS011;4477;48.736;9.176;2024-02-23T12:44:46;3.10;;;0.77;;
8881;SDS011;4477;48.736;9.176;2024-02-23T12:47:15;4.53;;;1.13;;
8881;SDS011;4477;48.736;9.176;2024-02-23T12:49:45;3.70;;;1.07;;
8881;SDS011;4477;48.736;9.176;2024-02-23T12:52:24;1.70;;;0.90;;
8881;SDS011;4477;48.736;9.176;2024-02-23T12:54:56;3.67;;;1.03;;
8881;SDS011;4477;48.736;9.176;2024-02-23T12:57:23;3.37;;;1.17;;
8881;SDS011;4477;48.736;9.176;2024-02-23T12:59:51;2.60;;;1.10;;
8881;SDS011;4477;48.736;9.176;2024-02-23T13:02:22;2.07;;;1.10;;
8881;SDS011;4477;48.736;9.176;2024-02-23T13:04:50;4.50;;;1.20;;
8881;SDS011;4477;48.736;9.176;2024-02-23T13:07:17;2.83;;;1.00;;
8881;SDS011;4477;48.736;9.176;2024-02-23T13:10:01;1.97;;;0.90;;
8881;SDS011;4477;48.736;9.176;2024-02-23T13:13:17;2.57;;;1.03;;
8881;SDS011;4477;48.736;9.176;2024-02-23T13:15:47;3.90;;;1.27;;
8881;SDS011;4477;48.736;9.176;2024-02-23T13:18:31;4.40;;;1.40;;
8881;SDS011;4477;48.736;9.176;2024-02-23T13:21:09;4.27;;;1.10;;
8881;SDS011;4477;48.736;9.176;2024-02-23T13:23:39;2.20;;;0.80;;
8881;SDS011;4477;48.736;9.176;2024-02-23T13:26:20;3.10;;;0.97;;
8881;SDS011;4477;48.736;9.176;2024-02-23T13:28:52;2.63;;;1.00;;
8881;SDS011;4477;48.736;9.176;2024-02-23T13:31:51;3.23;;;1.20;;
8881;SDS011;4477;48.736;9.176;2024-02-23T13:34:19;3.00;;;1.20;;
8881;SDS011;4477;48.736;9.176;2024-02-23T13:36:47;4.27;;;1.07;;
8881;SDS011;4477;48.736;9.176;2024-02-23T13:39:17;6.33;;;1.30;;
8881;SDS011;4477;48.736;9.176;2024-02-23T13:41:44;2.57;;;1.10;;
8881;SDS011;4477;48.736;9.176;2024-02-23T13:44:13;2.73;;;0.90;;
8881;SDS011;4477;48.736;9.176;2024-02-23T13:46:46;4.60;;;1.17;;
8881;SDS011;4477;48.736;9.176;2024-02-23T13:49:15;5.50;;;1.13;;
8881;SDS011;4477;48.736;9.176;2024-02-23T13:51:45;3.40;;;1.13;;
8881;SDS011;4477;48.736;9.176;2024-02-23T13:54:22;3.47;;;1.30;;
8881;SDS011;4477;48.736;9.176;2024-02-23T13:56:51;5.30;;;0.80;;
8881;SDS011;4477;48.736;9.176;2024-02-23T13:59:21;4.07;;;1.37;;
8881;SDS011;4477;48.736;9.176;2024-02-23T14:01:49;6.20;;;1.20;;
8881;SDS011;4477;48.736;9.176;2024-02-23T14:04:21;1.50;;;0.80;;
8881;SDS011;4477;48.736;9.176;2024-02-23T14:06:49;2.97;;;1.00;;
8881;SDS011;4477;48.736;9.176;2024-02-23T14:09:37;4.37;;;1.33;;
8881;SDS011;4477;48.736;9.176;2024-02-23T14:12:09;3.33;;;1.00;;
8881;SDS011;4477;48.736;9.176;2024-02-23T14:14:51;1.53;;;0.80;;
8881;SDS011;4477;48.736;9.176;2024-02-23T14:17:19;4.87;;;1.23;;
8881;SDS011;4477;48.736;9.176;2024-02-23T14:19:46;9.63;;;1.47;;
8881;SDS011;4477;48.736;9.176;2024-02-23T14:22:21;3.17;;;1.10;;
8881;SDS011;4477;48.736;9.176;2024-02-23T14:25:17;4.57;;;1.10;;
8881;SDS011;4477;48.736;9.176;2024-02-23T14:27:51;2.67;;;0.97;;
8881;SDS011;4477;48.736;9.176;2024-02-23T14:30:38;3.93;;;1.10;;
8881;SDS011;4477;48.736;9.176;2024-02-23T14:33:08;4.77;;;1.40;;
8881;SDS011;4477;48.736;9.176;2024-02-23T14:35:39;4.17;;;1.20;;
8881;SDS011;4477;48.736;9.176;2024-02-23T14:38:07;2.80;;;1.20;;
8881;SDS011;4477;48.736;9.176;2024-02-23T14:40:36;6.23;;;1.50;;
8881;SDS011;4477;48.736;9.176;2024-02-23T14:43:05;6.10;;;1.30;;
8881;SDS011;4477;48.736;9.176;2024-02-23T14:48:25;5.87;;;1.53;;
8881;SDS011;4477;48.736;9.176;2024-02-23T14:50:57;4.87;;;1.30;;
8881;SDS011;4477;48.736;9.176;2024-02-23T14:53:37;3.33;;;1.27;;
8881;SDS011;4477;48.736;9.176;2024-02-23T14:56:16;4.40;;;1.10;;
8881;SDS011;4477;48.736;9.176;2024-02-23T14:58:57;2.93;;;1.10;;
8881;SDS011;4477;48.736;9.176;2024-02-23T15:01:49;2.10;;;1.10;;
8881;SDS011;4477;48.736;9.176;2024-02-23T15:04:34;4.73;;;0.90;;
8881;SDS011;4477;48.736;9.176;2024-02-23T15:07:05;5.97;;;1.50;;
8881;SDS011;4477;48.736;9.176;2024-02-23T15:09:48;4.03;;;1.33;;
8881;SDS011;4477;48.736;9.176;2024-02-23T15:12:30;2.87;;;1.00;;
8881;SDS011;4477;48.736;9.176;2024-02-23T15:15:04;3.03;;;0.97;;
8881;SDS011;4477;48.736;9.176;2024-02-23T15:17:36;2.10;;;1.10;;
8881;SDS011;4477;48.736;9.176;2024-02-23T15:20:07;4.30;;;1.40;;
8881;SDS011;4477;48.736;9.176;2024-02-23T15:22:38;2.90;;;1.57;;
8881;SDS011;4477;48.736;9.176;2024-02-23T15:25:16;5.87;;;2.43;;
8881;SDS011;4477;48.736;9.176;2024-02-23T15:27:54;3.13;;;0.90;;
8881;SDS011;4477;48.736;9.176;2024-02-23T15:30:50;4.50;;;1.50;;
8881;SDS011;4477;48.736;9.176;2024-02-23T15:33:19;3.73;;;1.40;;
8881;SDS011;4477;48.736;9.176;2024-02-23T15:35:54;1.33;;;0.97;;
8881;SDS011;4477;48.736;9.176;2024-02-23T15:38:22;3.93;;;1.30;;
8881;SDS011;4477;48.736;9.176;2024-02-23T15:40:57;3.47;;;0.90;;
8881;SDS011;4477;48.736;9.176;2024-02-23T15:44:10;2.70;;;1.00;;
8881;SDS011;4477;48.736;9.176;2024-02-23T15:50:00;4.27;;;1.00;;